Terminal Aerodrome Forecast
Issued by NWS Duluth, MN

Home | Current Version | Previous Version | Text Only | Print | Product List | Glossary On
Versions: 1 2 3 4 5 6 7 8 9 10 11 12 13 14 15 16 17 18 19 20 21 22 23 24 25 26 27 28 29 30 31 32 33
767
FTUS43 KDLH 191743
TAFDLH
TAF
KDLH 191743Z 1918/2018 22006KT P6SM SCT003
     FM192300 19007KT 3/4SM BR OVC004
     FM200100 19005KT 1/4SM FG VV002
     FM201100 20006KT 1/4SM -FZDZ FG VV002=

USA.gov is the U.S. government's official web portal to all federal, state and local government web resources and services.